sensor_id;sensor_type;location;lat;lon;timestamp;pressure;altitude;pressure_sealevel;temperature;humidity
1472;BME280;963;42.644;23.336;2023-06-14T00:02:17;93940.91;;;18.37;91.23
1472;BME280;963;42.644;23.336;2023-06-14T00:04:43;93932.16;;;18.36;91.47
1472;BME280;963;42.644;23.336;2023-06-14T00:07:08;93928.06;;;18.32;91.79
1472;BME280;963;42.644;23.336;2023-06-14T00:09:34;93924.94;;;18.37;92.00
1472;BME280;963;42.644;23.336;2023-06-14T00:12:00;93923.84;;;18.34;92.11
1472;BME280;963;42.644;23.336;2023-06-14T00:14:26;93919.53;;;18.40;91.91
1472;BME280;963;42.644;23.336;2023-06-14T00:16:51;93927.53;;;18.40;91.92
1472;BME280;963;42.644;23.336;2023-06-14T00:19:18;93918.44;;;18.38;91.84
1472;BME280;963;42.644;23.336;2023-06-14T00:21:45;93920.34;;;18.37;92.64
1472;BME280;963;42.644;23.336;2023-06-14T00:24:11;93924.19;;;18.36;93.22
1472;BME280;963;42.644;23.336;2023-06-14T00:26:36;93906.78;;;18.32;93.14
1472;BME280;963;42.644;23.336;2023-06-14T00:29:01;93904.31;;;18.41;92.53
1472;BME280;963;42.644;23.336;2023-06-14T00:31:27;93908.53;;;18.38;92.10
1472;BME280;963;42.644;23.336;2023-06-14T00:33:52;93921.38;;;18.43;92.28
1472;BME280;963;42.644;23.336;2023-06-14T00:36:18;93900.97;;;18.37;92.25
1472;BME280;963;42.644;23.336;2023-06-14T00:38:43;93903.56;;;18.40;92.36
1472;BME280;963;42.644;23.336;2023-06-14T00:41:08;93910.31;;;18.45;91.88
1472;BME280;963;42.644;23.336;2023-06-14T00:43:34;93889.91;;;18.38;91.89
1472;BME280;963;42.644;23.336;2023-06-14T00:46:00;93909.47;;;18.48;92.28
1472;BME280;963;42.644;23.336;2023-06-14T00:48:25;93904.06;;;18.52;92.24
1472;BME280;963;42.644;23.336;2023-06-14T00:50:52;93903.41;;;18.48;91.95
1472;BME280;963;42.644;23.336;2023-06-14T00:53:18;93894.41;;;18.41;92.20
1472;BME280;963;42.644;23.336;2023-06-14T00:55:46;93913.38;;;18.43;91.75
1472;BME280;963;42.644;23.336;2023-06-14T00:58:12;93901.56;;;18.44;91.75
1472;BME280;963;42.644;23.336;2023-06-14T01:00:37;93894.72;;;18.43;91.91
1472;BME280;963;42.644;23.336;2023-06-14T01:03:03;93895.41;;;18.48;92.49
1472;BME280;963;42.644;23.336;2023-06-14T01:05:29;93904.56;;;18.47;92.31
1472;BME280;963;42.644;23.336;2023-06-14T01:11:20;93899.56;;;18.49;92.03
1472;BME280;963;42.644;23.336;2023-06-14T01:13:48;93901.81;;;18.50;91.73
1472;BME280;963;42.644;23.336;2023-06-14T01:16:16;93893.84;;;18.50;91.63
1472;BME280;963;42.644;23.336;2023-06-14T01:18:43;93904.91;;;18.49;91.35
1472;BME280;963;42.644;23.336;2023-06-14T01:21:23;93910.16;;;18.52;91.71
1472;BME280;963;42.644;23.336;2023-06-14T01:23:49;93906.00;;;18.51;91.39
1472;BME280;963;42.644;23.336;2023-06-14T01:26:19;93892.66;;;18.51;91.85
1472;BME280;963;42.644;23.336;2023-06-14T01:28:45;93907.06;;;18.54;92.10
1472;BME280;963;42.644;23.336;2023-06-14T01:31:19;93890.50;;;18.46;91.95
1472;BME280;963;42.644;23.336;2023-06-14T01:33:48;93899.09;;;18.54;92.19
1472;BME280;963;42.644;23.336;2023-06-14T01:36:15;93903.81;;;18.46;91.83
1472;BME280;963;42.644;23.336;2023-06-14T01:38:42;93897.41;;;18.43;93.03
1472;BME280;963;42.644;23.336;2023-06-14T01:41:09;93905.66;;;18.49;92.59
1472;BME280;963;42.644;23.336;2023-06-14T01:43:35;93887.16;;;18.42;93.11
1472;BME280;963;42.644;23.336;2023-06-14T01:46:03;93893.75;;;18.54;92.77
1472;BME280;963;42.644;23.336;2023-06-14T01:48:28;93888.66;;;18.43;93.20
1472;BME280;963;42.644;23.336;2023-06-14T01:50:54;93891.25;;;18.47;92.80
1472;BME280;963;42.644;23.336;2023-06-14T01:53:19;93884.97;;;18.37;92.76
1472;BME280;963;42.644;23.336;2023-06-14T01:55:45;93902.72;;;18.43;92.99
1472;BME280;963;42.644;23.336;2023-06-14T01:58:14;93891.72;;;18.41;93.28
1472;BME280;963;42.644;23.336;2023-06-14T02:00:41;93902.06;;;18.39;93.10
1472;BME280;963;42.644;23.336;2023-06-14T02:03:08;93911.19;;;18.38;93.11
1472;BME280;963;42.644;23.336;2023-06-14T02:05:34;93909.38;;;18.35;93.07
1472;BME280;963;42.644;23.336;2023-06-14T02:08:00;93898.38;;;18.33;93.20
1472;BME280;963;42.644;23.336;2023-06-14T02:10:25;93908.88;;;18.40;93.16
1472;BME280;963;42.644;23.336;2023-06-14T02:12:51;93915.69;;;18.41;93.28
1472;BME280;963;42.644;23.336;2023-06-14T02:15:17;93911.13;;;18.42;92.57
1472;BME280;963;42.644;23.336;2023-06-14T02:17:43;93922.59;;;18.39;92.23
1472;BME280;963;42.644;23.336;2023-06-14T02:20:10;93915.78;;;18.38;91.77
1472;BME280;963;42.644;23.336;2023-06-14T02:22:35;93922.59;;;18.39;91.58
1472;BME280;963;42.644;23.336;2023-06-14T02:25:01;93915.84;;;18.34;91.92
1472;BME280;963;42.644;23.336;2023-06-14T02:27:26;93923.50;;;18.32;91.98
1472;BME280;963;42.644;23.336;2023-06-14T02:29:51;93946.16;;;18.40;91.94
1472;BME280;963;42.644;23.336;2023-06-14T02:32:17;93922.69;;;18.35;92.08
1472;BME280;963;42.644;23.336;2023-06-14T02:34:42;93915.59;;;18.29;92.62
1472;BME280;963;42.644;23.336;2023-06-14T02:37:08;93921.19;;;18.34;92.47
1472;BME280;963;42.644;23.336;2023-06-14T02:39:34;93922.81;;;18.28;92.79
1472;BME280;963;42.644;23.336;2023-06-14T02:41:59;93923.50;;;18.32;92.46
1472;BME280;963;42.644;23.336;2023-06-14T02:44:26;93916.00;;;18.27;91.58
1472;BME280;963;42.644;23.336;2023-06-14T02:46:55;93922.16;;;18.24;92.04
1472;BME280;963;42.644;23.336;2023-06-14T02:49:21;93927.13;;;18.22;92.21
1472;BME280;963;42.644;23.336;2023-06-14T02:51:48;93913.19;;;18.15;92.12
1472;BME280;963;42.644;23.336;2023-06-14T02:54:13;93927.59;;;18.17;92.24
1472;BME280;963;42.644;23.336;2023-06-14T02:56:38;93943.84;;;18.03;92.33
1472;BME280;963;42.644;23.336;2023-06-14T02:59:04;93936.06;;;18.12;92.63
1472;BME280;963;42.644;23.336;2023-06-14T03:01:29;93925.06;;;18.10;93.14
1472;BME280;963;42.644;23.336;2023-06-14T03:04:02;93926.97;;;18.09;93.59
1472;BME280;963;42.644;23.336;2023-06-14T03:06:31;93941.44;;;18.08;93.67
1472;BME280;963;42.644;23.336;2023-06-14T03:08:57;93933.03;;;18.10;94.13
1472;BME280;963;42.644;23.336;2023-06-14T03:11:30;93929.63;;;18.09;93.92
1472;BME280;963;42.644;23.336;2023-06-14T03:13:56;93926.63;;;18.07;93.36
1472;BME280;963;42.644;23.336;2023-06-14T03:16:22;93944.38;;;18.14;93.25
1472;BME280;963;42.644;23.336;2023-06-14T03:18:52;93942.06;;;18.16;92.91
1472;BME280;963;42.644;23.336;2023-06-14T03:21:20;93949.63;;;18.18;92.36
1472;BME280;963;42.644;23.336;2023-06-14T03:23:47;93942.41;;;18.18;92.55
1472;BME280;963;42.644;23.336;2023-06-14T03:26:14;93937.41;;;18.20;93.09
1472;BME280;963;42.644;23.336;2023-06-14T03:28:46;93951.09;;;18.22;93.18
1472;BME280;963;42.644;23.336;2023-06-14T03:31:12;93917.41;;;18.12;93.10
1472;BME280;963;42.644;23.336;2023-06-14T03:33:38;93923.00;;;18.18;92.83
1472;BME280;963;42.644;23.336;2023-06-14T03:36:04;93938.13;;;18.24;92.77
1472;BME280;963;42.644;23.336;2023-06-14T03:38:30;93930.25;;;18.17;92.89
1472;BME280;963;42.644;23.336;2023-06-14T03:40:55;93943.38;;;18.28;92.30
1472;BME280;963;42.644;23.336;2023-06-14T03:43:21;93940.38;;;18.26;91.74
1472;BME280;963;42.644;23.336;2023-06-14T03:45:46;93939.72;;;18.18;91.94
1472;BME280;963;42.644;23.336;2023-06-14T03:48:12;93955.66;;;18.22;92.37
1472;BME280;963;42.644;23.336;2023-06-14T03:50:37;93954.91;;;18.21;92.57
1472;BME280;963;42.644;23.336;2023-06-14T03:53:04;93958.78;;;18.17;92.50
1472;BME280;963;42.644;23.336;2023-06-14T03:55:29;93951.88;;;18.19;92.60
1472;BME280;963;42.644;23.336;2023-06-14T03:57:56;93964.03;;;18.20;92.56
1472;BME280;963;42.644;23.336;2023-06-14T04:00:22;93957.16;;;18.23;92.79
1472;BME280;963;42.644;23.336;2023-06-14T04:02:48;93961.03;;;18.18;93.18
1472;BME280;963;42.644;23.336;2023-06-14T04:05:14;93950.38;;;18.18;93.22
1472;BME280;963;42.644;23.336;2023-06-14T04:07:40;93954.22;;;18.17;92.74
1472;BME280;963;42.644;23.336;2023-06-14T04:10:11;93970.88;;;18.21;91.95
1472;BME280;963;42.644;23.336;2023-06-14T04:12:36;93957.22;;;18.19;92.42
1472;BME280;963;42.644;23.336;2023-06-14T04:15:02;93956.53;;;18.15;92.51
1472;BME280;963;42.644;23.336;2023-06-14T04:17:28;93960.34;;;18.14;92.49
1472;BME280;963;42.644;23.336;2023-06-14T04:19:53;93956.19;;;18.13;92.25
1472;BME280;963;42.644;23.336;2023-06-14T04:22:19;93950.09;;;18.12;91.69
1472;BME280;963;42.644;23.336;2023-06-14T04:24:44;93959.19;;;18.15;92.11
1472;BME280;963;42.644;23.336;2023-06-14T04:27:10;93971.75;;;18.15;92.23
1472;BME280;963;42.644;23.336;2023-06-14T04:29:35;93952.78;;;18.12;91.54
1472;BME280;963;42.644;23.336;2023-06-14T04:32:01;93966.34;;;18.18;90.99
1472;BME280;963;42.644;23.336;2023-06-14T04:34:27;93964.75;;;18.24;90.25
1472;BME280;963;42.644;23.336;2023-06-14T04:36:59;93957.78;;;18.30;89.99
1472;BME280;963;42.644;23.336;2023-06-14T04:39:26;93951.03;;;18.26;89.60
1472;BME280;963;42.644;23.336;2023-06-14T04:41:53;93955.47;;;18.32;89.74
1472;BME280;963;42.644;23.336;2023-06-14T04:44:23;93961.47;;;18.36;89.05
1472;BME280;963;42.644;23.336;2023-06-14T04:46:56;93953.13;;;18.34;88.29
1472;BME280;963;42.644;23.336;2023-06-14T04:49:21;93963.78;;;18.34;88.55
1472;BME280;963;42.644;23.336;2023-06-14T04:51:48;93965.78;;;18.30;89.39
1472;BME280;963;42.644;23.336;2023-06-14T04:54:22;93963.38;;;18.36;88.09
1472;BME280;963;42.644;23.336;2023-06-14T04:56:50;93977.22;;;18.47;88.36
1472;BME280;963;42.644;23.336;2023-06-14T04:59:15;93970.25;;;18.53;87.99
1472;BME280;963;42.644;23.336;2023-06-14T05:01:42;93970.13;;;18.60;87.90
1472;BME280;963;42.644;23.336;2023-06-14T05:04:13;93976.09;;;18.68;87.30
1472;BME280;963;42.644;23.336;2023-06-14T05:06:38;93983.94;;;18.75;87.59
1472;BME280;963;42.644;23.336;2023-06-14T05:09:03;93981.28;;;18.75;87.30
1472;BME280;963;42.644;23.336;2023-06-14T05:11:29;93981.09;;;18.03;87.70
1472;BME280;963;42.644;23.336;2023-06-14T05:13:54;93983.59;;;18.33;87.50
1472;BME280;963;42.644;23.336;2023-06-14T05:16:20;93975.94;;;18.35;86.80
1472;BME280;963;42.644;23.336;2023-06-14T05:18:48;93975.31;;;18.48;86.69
1472;BME280;963;42.644;23.336;2023-06-14T05:21:14;93984.56;;;18.63;86.70
1472;BME280;963;42.644;23.336;2023-06-14T05:23:43;93975.75;;;18.66;86.49
1472;BME280;963;42.644;23.336;2023-06-14T05:26:09;93999.63;;;18.50;87.91
1472;BME280;963;42.644;23.336;2023-06-14T05:28:35;93992.16;;;18.64;86.41
1472;BME280;963;42.644;23.336;2023-06-14T05:31:01;94000.44;;;18.86;85.65
1472;BME280;963;42.644;23.336;2023-06-14T05:33:26;93998.47;;;18.90;85.07
1472;BME280;963;42.644;23.336;2023-06-14T05:35:52;94007.78;;;18.82;85.28
1472;BME280;963;42.644;23.336;2023-06-14T05:38:17;94012.38;;;18.58;85.63
1472;BME280;963;42.644;23.336;2023-06-14T05:40:42;94001.06;;;18.34;87.24
1472;BME280;963;42.644;23.336;2023-06-14T05:43:08;94000.41;;;18.70;86.15
1472;BME280;963;42.644;23.336;2023-06-14T05:45:33;94009.94;;;18.87;85.56
1472;BME280;963;42.644;23.336;2023-06-14T05:47:58;94003.78;;;18.90;85.52
1472;BME280;963;42.644;23.336;2023-06-14T05:50:24;94020.25;;;19.05;85.06
1472;BME280;963;42.644;23.336;2023-06-14T05:52:49;94016.88;;;19.21;84.54
1472;BME280;963;42.644;23.336;2023-06-14T05:55:16;94020.94;;;18.89;86.63
1472;BME280;963;42.644;23.336;2023-06-14T05:57:42;94020.00;;;18.99;85.78
1472;BME280;963;42.644;23.336;2023-06-14T06:00:08;94008.84;;;19.21;84.94
1472;BME280;963;42.644;23.336;2023-06-14T06:02:36;94012.03;;;19.32;84.37
1472;BME280;963;42.644;23.336;2023-06-14T06:05:02;94012.72;;;19.36;82.58
1472;BME280;963;42.644;23.336;2023-06-14T06:07:28;94022.66;;;19.35;82.81
1472;BME280;963;42.644;23.336;2023-06-14T06:09:53;94036.50;;;19.47;81.66
1472;BME280;963;42.644;23.336;2023-06-14T06:12:18;94012.72;;;19.52;81.53
1472;BME280;963;42.644;23.336;2023-06-14T06:14:44;94008.56;;;19.51;82.40
1472;BME280;963;42.644;23.336;2023-06-14T06:17:09;94023.78;;;19.54;82.94
1472;BME280;963;42.644;23.336;2023-06-14T06:19:35;94019.75;;;19.62;82.04
1472;BME280;963;42.644;23.336;2023-06-14T06:22:00;94025.09;;;19.62;82.46
1472;BME280;963;42.644;23.336;2023-06-14T06:24:26;94027.09;;;19.58;82.67
1472;BME280;963;42.644;23.336;2023-06-14T06:26:51;94036.59;;;19.59;82.07
1472;BME280;963;42.644;23.336;2023-06-14T06:29:16;94025.84;;;19.63;81.31
1472;BME280;963;42.644;23.336;2023-06-14T06:31:42;94041.44;;;19.64;79.88
1472;BME280;963;42.644;23.336;2023-06-14T06:34:07;94041.09;;;19.62;79.38
1472;BME280;963;42.644;23.336;2023-06-14T06:36:32;94032.69;;;19.64;79.16
1472;BME280;963;42.644;23.336;2023-06-14T06:38:58;94039.53;;;19.65;78.92
1472;BME280;963;42.644;23.336;2023-06-14T06:41:23;94037.59;;;19.65;79.36
1472;BME280;963;42.644;23.336;2023-06-14T06:43:49;94016.94;;;19.53;80.04
1472;BME280;963;42.644;23.336;2023-06-14T06:46:14;94034.28;;;19.61;80.44
1472;BME280;963;42.644;23.336;2023-06-14T06:48:40;94041.03;;;19.66;80.88
1472;BME280;963;42.644;23.336;2023-06-14T06:51:05;94058.22;;;19.65;81.11
1472;BME280;963;42.644;23.336;2023-06-14T06:53:30;94053.63;;;19.65;80.74
1472;BME280;963;42.644;23.336;2023-06-14T06:55:56;94039.53;;;19.65;81.70
1472;BME280;963;42.644;23.336;2023-06-14T06:58:21;94031.59;;;19.61;82.09
1472;BME280;963;42.644;23.336;2023-06-14T07:00:47;94050.81;;;19.73;82.15
1472;BME280;963;42.644;23.336;2023-06-14T07:03:12;94036.63;;;19.76;81.87
1472;BME280;963;42.644;23.336;2023-06-14T07:05:38;94037.78;;;19.75;82.13
1472;BME280;963;42.644;23.336;2023-06-14T07:08:03;94037.28;;;19.63;82.23
1472;BME280;963;42.644;23.336;2023-06-14T07:10:29;94046.47;;;19.79;80.51
1472;BME280;963;42.644;23.336;2023-06-14T07:12:54;94034.44;;;19.87;80.27
1472;BME280;963;42.644;23.336;2023-06-14T07:15:20;94036.53;;;19.95;80.81
1472;BME280;963;42.644;23.336;2023-06-14T07:17:46;94039.44;;;20.01;80.87
1472;BME280;963;42.644;23.336;2023-06-14T07:20:12;94027.09;;;20.07;79.80
1472;BME280;963;42.644;23.336;2023-06-14T07:22:42;94027.56;;;20.18;78.82
1472;BME280;963;42.644;23.336;2023-06-14T07:25:09;94039.38;;;20.34;78.77
1472;BME280;963;42.644;23.336;2023-06-14T07:27:35;94027.69;;;20.44;77.25
1472;BME280;963;42.644;23.336;2023-06-14T07:30:00;94028.28;;;20.51;77.75
1472;BME280;963;42.644;23.336;2023-06-14T07:32:26;94028.31;;;20.64;76.45
1472;BME280;963;42.644;23.336;2023-06-14T07:34:51;94021.69;;;20.69;75.78
1472;BME280;963;42.644;23.336;2023-06-14T07:37:16;94014.81;;;20.39;76.46
1472;BME280;963;42.644;23.336;2023-06-14T07:39:42;94031.84;;;20.61;77.33
1472;BME280;963;42.644;23.336;2023-06-14T07:42:07;94018.28;;;20.68;75.24
1472;BME280;963;42.644;23.336;2023-06-14T07:44:33;94016.88;;;20.76;74.73
1472;BME280;963;42.644;23.336;2023-06-14T07:46:58;94016.88;;;20.76;74.88
1472;BME280;963;42.644;23.336;2023-06-14T07:49:25;94025.19;;;20.95;75.09
1472;BME280;963;42.644;23.336;2023-06-14T07:51:50;94020.13;;;20.84;74.86
1472;BME280;963;42.644;23.336;2023-06-14T07:54:16;94028.06;;;21.00;75.85
1472;BME280;963;42.644;23.336;2023-06-14T07:56:41;94042.44;;;21.19;74.50
1472;BME280;963;42.644;23.336;2023-06-14T07:59:07;94044.03;;;21.16;75.58
1472;BME280;963;42.644;23.336;2023-06-14T08:01:33;94037.25;;;21.28;75.00
1472;BME280;963;42.644;23.336;2023-06-14T08:03:58;94025.34;;;21.29;74.71
1472;BME280;963;42.644;23.336;2023-06-14T08:06:24;94039.25;;;21.49;74.60
1472;BME280;963;42.644;23.336;2023-06-14T08:08:50;94046.56;;;21.62;73.03
1472;BME280;963;42.644;23.336;2023-06-14T08:11:15;94063.03;;;21.73;72.04
1472;BME280;963;42.644;23.336;2023-06-14T08:13:41;94066.78;;;21.63;72.99
1472;BME280;963;42.644;23.336;2023-06-14T08:16:06;94070.75;;;21.71;73.49
1472;BME280;963;42.644;23.336;2023-06-14T08:18:32;94058.09;;;21.84;73.37
1472;BME280;963;42.644;23.336;2023-06-14T08:20:57;94071.47;;;21.97;72.45
1472;BME280;963;42.644;23.336;2023-06-14T08:23:23;94066.34;;;22.02;71.33
1472;BME280;963;42.644;23.336;2023-06-14T08:25:48;94060.88;;;21.93;70.73
1472;BME280;963;42.644;23.336;2023-06-14T08:28:14;94054.66;;;21.96;71.45
1472;BME280;963;42.644;23.336;2023-06-14T08:30:39;94068.38;;;22.11;71.18
1472;BME280;963;42.644;23.336;2023-06-14T08:33:04;94096.34;;;22.10;70.26
1472;BME280;963;42.644;23.336;2023-06-14T08:35:30;94062.03;;;22.18;70.21
1472;BME280;963;42.644;23.336;2023-06-14T08:37:55;94066.97;;;22.19;70.64
1472;BME280;963;42.644;23.336;2023-06-14T08:40:23;94069.63;;;22.32;70.30
1472;BME280;963;42.644;23.336;2023-06-14T08:42:54;94068.56;;;22.17;70.96
1472;BME280;963;42.644;23.336;2023-06-14T08:45:24;94066.59;;;22.30;70.39
1472;BME280;963;42.644;23.336;2023-06-14T08:47:50;94059.84;;;22.38;69.68
1472;BME280;963;42.644;23.336;2023-06-14T08:50:21;94052.56;;;22.26;68.22
1472;BME280;963;42.644;23.336;2023-06-14T08:52:53;94059.69;;;21.81;69.80
1472;BME280;963;42.644;23.336;2023-06-14T08:55:19;94055.97;;;22.04;69.70
1472;BME280;963;42.644;23.336;2023-06-14T08:57:46;94053.13;;;22.21;69.13
1472;BME280;963;42.644;23.336;2023-06-14T09:00:13;94057.50;;;22.27;68.74
1472;BME280;963;42.644;23.336;2023-06-14T09:02:39;94060.63;;;22.26;67.46
1472;BME280;963;42.644;23.336;2023-06-14T09:05:12;94065.97;;;22.26;66.91
1472;BME280;963;42.644;23.336;2023-06-14T09:07:41;94047.13;;;22.17;67.80
1472;BME280;963;42.644;23.336;2023-06-14T09:10:14;94039.47;;;22.28;68.13
1472;BME280;963;42.644;23.336;2023-06-14T09:12:40;94042.38;;;22.33;68.86
1472;BME280;963;42.644;23.336;2023-06-14T09:15:07;94051.94;;;22.56;68.45
1472;BME280;963;42.644;23.336;2023-06-14T09:17:37;94055.34;;;22.69;67.71
1472;BME280;963;42.644;23.336;2023-06-14T09:20:03;94057.22;;;21.87;68.57
1472;BME280;963;42.644;23.336;2023-06-14T09:22:32;94053.38;;;22.01;68.86
1472;BME280;963;42.644;23.336;2023-06-14T09:24:58;94041.22;;;22.22;68.22
1472;BME280;963;42.644;23.336;2023-06-14T09:27:25;94050.88;;;22.32;67.44
1472;BME280;963;42.644;23.336;2023-06-14T09:29:51;94052.00;;;22.43;68.79
1472;BME280;963;42.644;23.336;2023-06-14T09:32:17;94042.81;;;22.32;66.92
1472;BME280;963;42.644;23.336;2023-06-14T09:34:42;94038.66;;;22.31;68.42
1472;BME280;963;42.644;23.336;2023-06-14T09:37:07;94037.22;;;22.61;67.79
1472;BME280;963;42.644;23.336;2023-06-14T09:39:33;94039.00;;;22.76;67.26
1472;BME280;963;42.644;23.336;2023-06-14T09:41:59;94034.91;;;22.50;65.62
1472;BME280;963;42.644;23.336;2023-06-14T09:44:25;94031.72;;;22.64;65.13
1472;BME280;963;42.644;23.336;2023-06-14T09:46:55;94030.41;;;22.82;65.71
1472;BME280;963;42.644;23.336;2023-06-14T09:49:21;94027.28;;;22.83;66.60
1472;BME280;963;42.644;23.336;2023-06-14T09:51:50;94032.53;;;22.30;66.53
1472;BME280;963;42.644;23.336;2023-06-14T09:54:20;94033.97;;;22.66;65.57
1472;BME280;963;42.644;23.336;2023-06-14T09:56:47;94032.44;;;22.77;65.47
1472;BME280;963;42.644;23.336;2023-06-14T09:59:16;94023.16;;;22.69;65.95
1472;BME280;963;42.644;23.336;2023-06-14T10:01:46;94029.00;;;22.77;66.00
1472;BME280;963;42.644;23.336;2023-06-14T10:04:13;94023.91;;;22.92;65.93
1472;BME280;963;42.644;23.336;2023-06-14T10:06:43;94023.91;;;22.70;65.64
1472;BME280;963;42.644;23.336;2023-06-14T10:09:10;94025.56;;;22.76;64.40
1472;BME280;963;42.644;23.336;2023-06-14T10:11:36;94003.31;;;22.45;65.30
1472;BME280;963;42.644;23.336;2023-06-14T10:14:04;94018.63;;;22.66;65.00
1472;BME280;963;42.644;23.336;2023-06-14T10:19:37;93993.47;;;22.86;64.71
1472;BME280;963;42.644;23.336;2023-06-14T10:22:22;93985.88;;;23.15;65.22
1472;BME280;963;42.644;23.336;2023-06-14T10:24:50;93988.47;;;23.37;63.63
1472;BME280;963;42.644;23.336;2023-06-14T10:27:16;93993.00;;;23.49;62.67
1472;BME280;963;42.644;23.336;2023-06-14T10:32:23;93987.41;;;23.65;62.51
1472;BME280;963;42.644;23.336;2023-06-14T10:34:57;93993.28;;;23.91;62.28
1472;BME280;963;42.644;23.336;2023-06-14T10:37:23;93979.84;;;24.00;61.23
1472;BME280;963;42.644;23.336;2023-06-14T10:39:51;93981.81;;;24.00;60.39
1472;BME280;963;42.644;23.336;2023-06-14T10:42:18;93984.94;;;24.08;61.16
1472;BME280;963;42.644;23.336;2023-06-14T10:44:45;93996.28;;;24.12;60.77
1472;BME280;963;42.644;23.336;2023-06-14T10:52:28;93988.84;;;24.25;59.81
1472;BME280;963;42.644;23.336;2023-06-14T10:55:10;93967.34;;;24.25;59.81
1472;BME280;963;42.644;23.336;2023-06-14T10:58:00;93959.59;;;24.36;59.89
1472;BME280;963;42.644;23.336;2023-06-14T11:00:29;93951.03;;;23.92;59.57
1472;BME280;963;42.644;23.336;2023-06-14T11:03:29;93961.00;;;23.64;60.43
1472;BME280;963;42.644;23.336;2023-06-14T11:05:58;93970.09;;;23.57;60.34
1472;BME280;963;42.644;23.336;2023-06-14T11:11:32;93957.72;;;23.60;60.05
1472;BME280;963;42.644;23.336;2023-06-14T11:13:59;93960.97;;;23.55;60.48
1472;BME280;963;42.644;23.336;2023-06-14T11:16:26;93958.91;;;23.59;59.73
1472;BME280;963;42.644;23.336;2023-06-14T11:18:52;93942.97;;;23.33;59.39
1472;BME280;963;42.644;23.336;2023-06-14T11:21:18;93949.59;;;23.51;59.19
1472;BME280;963;42.644;23.336;2023-06-14T11:23:53;93954.84;;;23.54;60.80
1472;BME280;963;42.644;23.336;2023-06-14T11:26:27;93956.22;;;23.59;60.19
1472;BME280;963;42.644;23.336;2023-06-14T11:28:56;93957.09;;;23.56;60.14
1472;BME280;963;42.644;23.336;2023-06-14T11:31:22;93964.09;;;23.53;59.44
1472;BME280;963;42.644;23.336;2023-06-14T11:33:50;93944.97;;;23.51;59.28
1472;BME280;963;42.644;23.336;2023-06-14T11:36:18;93955.16;;;23.16;60.87
1472;BME280;963;42.644;23.336;2023-06-14T11:38:43;93939.28;;;23.40;62.57
1472;BME280;963;42.644;23.336;2023-06-14T11:41:09;93947.41;;;23.58;60.22
1472;BME280;963;42.644;23.336;2023-06-14T11:43:35;93938.16;;;23.68;59.64
1472;BME280;963;42.644;23.336;2023-06-14T11:46:00;93959.06;;;23.74;59.51
1472;BME280;963;42.644;23.336;2023-06-14T11:48:41;93929.09;;;23.93;59.11
1472;BME280;963;42.644;23.336;2023-06-14T11:51:07;93933.88;;;24.08;58.97
1472;BME280;963;42.644;23.336;2023-06-14T11:53:33;93926.69;;;24.14;57.98
1472;BME280;963;42.644;23.336;2023-06-14T11:55:58;93923.56;;;24.15;57.93
1472;BME280;963;42.644;23.336;2023-06-14T11:58:25;93915.22;;;24.22;58.37
1472;BME280;963;42.644;23.336;2023-06-14T12:00:52;93911.78;;;24.31;58.24
1472;BME280;963;42.644;23.336;2023-06-14T12:03:22;93905.81;;;24.36;58.56
1472;BME280;963;42.644;23.336;2023-06-14T12:05:48;93899.25;;;24.28;58.86
1472;BME280;963;42.644;23.336;2023-06-14T12:08:13;93901.31;;;24.24;58.65
1472;BME280;963;42.644;23.336;2023-06-14T12:10:42;93900.13;;;24.16;57.54
1472;BME280;963;42.644;23.336;2023-06-14T12:13:08;93900.16;;;23.97;58.21
1472;BME280;963;42.644;23.336;2023-06-14T12:15:34;93903.69;;;23.67;58.96
1472;BME280;963;42.644;23.336;2023-06-14T12:18:00;93909.06;;;23.67;59.71
1472;BME280;963;42.644;23.336;2023-06-14T12:20:30;93906.38;;;23.58;59.53
1472;BME280;963;42.644;23.336;2023-06-14T12:22:58;93894.75;;;23.61;59.48
1472;BME280;963;42.644;23.336;2023-06-14T12:28:06;93891.47;;;23.66;60.53
1472;BME280;963;42.644;23.336;2023-06-14T12:30:33;93901.63;;;23.71;60.28
1472;BME280;963;42.644;23.336;2023-06-14T12:32:58;93889.09;;;23.86;60.84
1472;BME280;963;42.644;23.336;2023-06-14T12:35:25;93879.97;;;23.75;60.11
1472;BME280;963;42.644;23.336;2023-06-14T12:37:51;93897.13;;;23.77;59.37
1472;BME280;963;42.644;23.336;2023-06-14T12:40:16;93882.06;;;23.70;60.00
1472;BME280;963;42.644;23.336;2023-06-14T12:42:42;93876.84;;;23.67;60.18
1472;BME280;963;42.644;23.336;2023-06-14T12:45:08;93875.34;;;23.66;59.60
1472;BME280;963;42.644;23.336;2023-06-14T12:47:34;93879.38;;;23.61;60.21
1472;BME280;963;42.644;23.336;2023-06-14T12:49:59;93873.25;;;23.61;59.74
1472;BME280;963;42.644;23.336;2023-06-14T12:52:25;93860.09;;;23.45;61.84
1472;BME280;963;42.644;23.336;2023-06-14T12:54:50;93845.91;;;23.35;62.54
1472;BME280;963;42.644;23.336;2023-06-14T12:57:15;93875.88;;;23.33;62.21
1472;BME280;963;42.644;23.336;2023-06-14T12:59:41;93870.22;;;23.31;62.94
1472;BME280;963;42.644;23.336;2023-06-14T13:02:24;93873.19;;;23.33;63.33
1472;BME280;963;42.644;23.336;2023-06-14T13:04:50;93871.38;;;23.21;64.33
1472;BME280;963;42.644;23.336;2023-06-14T13:07:16;93859.69;;;22.97;64.68
1472;BME280;963;42.644;23.336;2023-06-14T13:09:42;93876.66;;;22.94;65.63
1472;BME280;963;42.644;23.336;2023-06-14T13:12:10;93868.22;;;22.73;66.18
1472;BME280;963;42.644;23.336;2023-06-14T13:14:39;93912.34;;;22.51;67.12
1472;BME280;963;42.644;23.336;2023-06-14T13:17:07;93895.56;;;22.59;68.37
1472;BME280;963;42.644;23.336;2023-06-14T13:19:33;93903.34;;;22.35;70.49
1472;BME280;963;42.644;23.336;2023-06-14T13:21:58;93911.41;;;22.23;68.96
1472;BME280;963;42.644;23.336;2023-06-14T13:24:23;93939.09;;;21.38;68.22
1472;BME280;963;42.644;23.336;2023-06-14T13:26:49;93932.88;;;21.28;68.79
1472;BME280;963;42.644;23.336;2023-06-14T13:29:14;93912.31;;;21.12;70.23
1472;BME280;963;42.644;23.336;2023-06-14T13:31:40;93958.88;;;20.89;73.88
1472;BME280;963;42.644;23.336;2023-06-14T13:34:05;93928.50;;;20.42;75.19
1472;BME280;963;42.644;23.336;2023-06-14T13:36:31;93938.16;;;20.52;78.70
1472;BME280;963;42.644;23.336;2023-06-14T13:38:56;93935.53;;;20.36;77.39
1472;BME280;963;42.644;23.336;2023-06-14T13:41:25;93957.09;;;20.28;79.85